sensor_id;sensor_type;location;lat;lon;timestamp;P1;durP1;ratioP1;P2;durP2;ratioP2
5900;SDS011;2976;49.764;9.796;2023-09-19T00:01:14;1.17;;;0.70;;
5900;SDS011;2976;49.764;9.796;2023-09-19T00:03:40;1.70;;;0.67;;
5900;SDS011;2976;49.764;9.796;2023-09-19T00:06:06;0.60;;;0.60;;
5900;SDS011;2976;49.764;9.796;2023-09-19T00:08:33;0.40;;;0.40;;
5900;SDS011;2976;49.764;9.796;2023-09-19T00:11:05;0.70;;;0.70;;
5900;SDS011;2976;49.764;9.796;2023-09-19T00:13:34;0.97;;;0.60;;
5900;SDS011;2976;49.764;9.796;2023-09-19T00:16:01;0.77;;;0.77;;
5900;SDS011;2976;49.764;9.796;2023-09-19T00:18:33;0.60;;;0.60;;
5900;SDS011;2976;49.764;9.796;2023-09-19T00:20:59;2.17;;;1.00;;
5900;SDS011;2976;49.764;9.796;2023-09-19T00:23:25;1.20;;;0.83;;
5900;SDS011;2976;49.764;9.796;2023-09-19T00:25:51;1.10;;;1.00;;
5900;SDS011;2976;49.764;9.796;2023-09-19T00:28:17;0.90;;;0.63;;
5900;SDS011;2976;49.764;9.796;2023-09-19T00:30:44;1.07;;;0.73;;
5900;SDS011;2976;49.764;9.796;2023-09-19T00:33:15;2.53;;;1.00;;
5900;SDS011;2976;49.764;9.796;2023-09-19T00:35:50;0.93;;;0.93;;
5900;SDS011;2976;49.764;9.796;2023-09-19T00:38:18;1.00;;;0.63;;
5900;SDS011;2976;49.764;9.796;2023-09-19T00:40:50;0.70;;;0.70;;
5900;SDS011;2976;49.764;9.796;2023-09-19T00:43:18;0.60;;;0.60;;
5900;SDS011;2976;49.764;9.796;2023-09-19T00:45:49;0.67;;;0.60;;
5900;SDS011;2976;49.764;9.796;2023-09-19T00:48:16;3.33;;;0.77;;
5900;SDS011;2976;49.764;9.796;2023-09-19T00:50:44;0.60;;;0.60;;
5900;SDS011;2976;49.764;9.796;2023-09-19T00:53:13;0.87;;;0.80;;
5900;SDS011;2976;49.764;9.796;2023-09-19T00:55:40;2.20;;;0.63;;
5900;SDS011;2976;49.764;9.796;2023-09-19T00:58:07;2.73;;;1.13;;
5900;SDS011;2976;49.764;9.796;2023-09-19T01:00:35;0.70;;;0.60;;
5900;SDS011;2976;49.764;9.796;2023-09-19T01:03:01;1.57;;;0.80;;
5900;SDS011;2976;49.764;9.796;2023-09-19T01:05:27;2.47;;;1.30;;
5900;SDS011;2976;49.764;9.796;2023-09-19T01:07:54;1.33;;;1.07;;
5900;SDS011;2976;49.764;9.796;2023-09-19T01:10:20;1.17;;;0.63;;
5900;SDS011;2976;49.764;9.796;2023-09-19T01:20:53;1.90;;;0.77;;
5900;SDS011;2976;49.764;9.796;2023-09-19T01:23:30;0.90;;;0.80;;
5900;SDS011;2976;49.764;9.796;2023-09-19T01:28:53;2.90;;;1.10;;
5900;SDS011;2976;49.764;9.796;2023-09-19T01:31:22;0.87;;;0.87;;
5900;SDS011;2976;49.764;9.796;2023-09-19T01:33:56;0.90;;;0.90;;
5900;SDS011;2976;49.764;9.796;2023-09-19T01:36:27;3.03;;;0.90;;
5900;SDS011;2976;49.764;9.796;2023-09-19T01:38:54;1.50;;;1.23;;
5900;SDS011;2976;49.764;9.796;2023-09-19T01:41:25;0.90;;;0.90;;
5900;SDS011;2976;49.764;9.796;2023-09-19T01:43:57;1.13;;;1.03;;
5900;SDS011;2976;49.764;9.796;2023-09-19T01:46:30;4.87;;;1.20;;
5900;SDS011;2976;49.764;9.796;2023-09-19T01:52:11;2.27;;;1.40;;
5900;SDS011;2976;49.764;9.796;2023-09-19T01:54:51;1.73;;;1.33;;
5900;SDS011;2976;49.764;9.796;2023-09-19T02:00:01;3.07;;;1.33;;
5900;SDS011;2976;49.764;9.796;2023-09-19T02:02:31;7.50;;;2.27;;
5900;SDS011;2976;49.764;9.796;2023-09-19T02:05:01;1.33;;;1.23;;
5900;SDS011;2976;49.764;9.796;2023-09-19T02:07:28;1.40;;;1.30;;
5900;SDS011;2976;49.764;9.796;2023-09-19T02:09:56;2.57;;;1.43;;
5900;SDS011;2976;49.764;9.796;2023-09-19T02:12:25;2.70;;;1.40;;
5900;SDS011;2976;49.764;9.796;2023-09-19T02:14:52;2.17;;;1.70;;
5900;SDS011;2976;49.764;9.796;2023-09-19T02:17:17;6.50;;;1.50;;
5900;SDS011;2976;49.764;9.796;2023-09-19T02:19:44;1.43;;;1.30;;
5900;SDS011;2976;49.764;9.796;2023-09-19T02:22:10;2.50;;;1.47;;
5900;SDS011;2976;49.764;9.796;2023-09-19T02:24:38;2.70;;;1.90;;
5900;SDS011;2976;49.764;9.796;2023-09-19T02:27:04;2.97;;;1.53;;
5900;SDS011;2976;49.764;9.796;2023-09-19T02:29:30;2.00;;;1.80;;
5900;SDS011;2976;49.764;9.796;2023-09-19T02:31:56;2.23;;;1.37;;
5900;SDS011;2976;49.764;9.796;2023-09-19T02:34:22;1.50;;;1.40;;
5900;SDS011;2976;49.764;9.796;2023-09-19T02:36:48;1.57;;;1.30;;
5900;SDS011;2976;49.764;9.796;2023-09-19T02:39:13;6.70;;;1.77;;
5900;SDS011;2976;49.764;9.796;2023-09-19T02:41:39;1.87;;;1.77;;
5900;SDS011;2976;49.764;9.796;2023-09-19T02:44:06;1.90;;;1.47;;
5900;SDS011;2976;49.764;9.796;2023-09-19T02:46:33;2.17;;;1.97;;
5900;SDS011;2976;49.764;9.796;2023-09-19T02:49:01;2.07;;;1.97;;
5900;SDS011;2976;49.764;9.796;2023-09-19T02:51:28;2.07;;;1.87;;
5900;SDS011;2976;49.764;9.796;2023-09-19T02:53:53;2.37;;;2.17;;
5900;SDS011;2976;49.764;9.796;2023-09-19T02:56:19;2.67;;;1.83;;
5900;SDS011;2976;49.764;9.796;2023-09-19T02:58:45;5.17;;;2.07;;
5900;SDS011;2976;49.764;9.796;2023-09-19T03:01:10;1.87;;;1.77;;
5900;SDS011;2976;49.764;9.796;2023-09-19T03:03:37;4.33;;;1.80;;
5900;SDS011;2976;49.764;9.796;2023-09-19T03:06:04;4.27;;;2.20;;
5900;SDS011;2976;49.764;9.796;2023-09-19T03:08:30;4.10;;;2.10;;
5900;SDS011;2976;49.764;9.796;2023-09-19T03:11:03;2.80;;;1.90;;
5900;SDS011;2976;49.764;9.796;2023-09-19T03:13:30;4.20;;;1.90;;
5900;SDS011;2976;49.764;9.796;2023-09-19T03:15:56;2.27;;;2.17;;
5900;SDS011;2976;49.764;9.796;2023-09-19T03:18:23;2.50;;;2.30;;
5900;SDS011;2976;49.764;9.796;2023-09-19T03:20:54;4.20;;;2.40;;
5900;SDS011;2976;49.764;9.796;2023-09-19T03:23:21;5.20;;;3.43;;
5900;SDS011;2976;49.764;9.796;2023-09-19T03:25:47;3.33;;;3.03;;
5900;SDS011;2976;49.764;9.796;2023-09-19T03:28:13;5.63;;;3.20;;
5900;SDS011;2976;49.764;9.796;2023-09-19T03:30:40;4.43;;;3.20;;
5900;SDS011;2976;49.764;9.796;2023-09-19T03:33:06;5.00;;;2.80;;
5900;SDS011;2976;49.764;9.796;2023-09-19T03:35:31;7.30;;;2.83;;
5900;SDS011;2976;49.764;9.796;2023-09-19T03:37:57;2.77;;;2.57;;
5900;SDS011;2976;49.764;9.796;2023-09-19T03:40:22;6.43;;;2.70;;
5900;SDS011;2976;49.764;9.796;2023-09-19T03:42:48;2.93;;;2.67;;
5900;SDS011;2976;49.764;9.796;2023-09-19T03:45:14;1.93;;;1.83;;
5900;SDS011;2976;49.764;9.796;2023-09-19T03:47:41;2.90;;;1.70;;
5900;SDS011;2976;49.764;9.796;2023-09-19T03:50:07;1.97;;;1.37;;
5900;SDS011;2976;49.764;9.796;2023-09-19T03:52:36;1.77;;;1.67;;
5900;SDS011;2976;49.764;9.796;2023-09-19T03:55:02;2.77;;;1.50;;
5900;SDS011;2976;49.764;9.796;2023-09-19T03:57:29;4.50;;;1.77;;
5900;SDS011;2976;49.764;9.796;2023-09-19T03:59:55;3.00;;;2.00;;
5900;SDS011;2976;49.764;9.796;2023-09-19T04:02:21;1.97;;;1.47;;
5900;SDS011;2976;49.764;9.796;2023-09-19T04:04:50;2.10;;;1.90;;
5900;SDS011;2976;49.764;9.796;2023-09-19T04:07:17;5.30;;;1.57;;
5900;SDS011;2976;49.764;9.796;2023-09-19T04:09:43;2.20;;;1.63;;
5900;SDS011;2976;49.764;9.796;2023-09-19T04:12:10;2.73;;;1.73;;
5900;SDS011;2976;49.764;9.796;2023-09-19T04:14:36;2.07;;;1.90;;
5900;SDS011;2976;49.764;9.796;2023-09-19T04:17:02;3.30;;;2.20;;
5900;SDS011;2976;49.764;9.796;2023-09-19T04:19:28;2.60;;;2.10;;
5900;SDS011;2976;49.764;9.796;2023-09-19T04:21:54;2.17;;;1.97;;
5900;SDS011;2976;49.764;9.796;2023-09-19T04:24:19;9.73;;;2.07;;
5900;SDS011;2976;49.764;9.796;2023-09-19T04:26:45;4.20;;;2.40;;
5900;SDS011;2976;49.764;9.796;2023-09-19T04:29:10;4.77;;;2.27;;
5900;SDS011;2976;49.764;9.796;2023-09-19T04:31:38;4.30;;;2.00;;
5900;SDS011;2976;49.764;9.796;2023-09-19T04:34:05;2.63;;;2.03;;
5900;SDS011;2976;49.764;9.796;2023-09-19T04:36:31;3.60;;;2.20;;
5900;SDS011;2976;49.764;9.796;2023-09-19T04:38:56;1.93;;;1.83;;
5900;SDS011;2976;49.764;9.796;2023-09-19T04:41:22;3.80;;;1.97;;
5900;SDS011;2976;49.764;9.796;2023-09-19T04:43:48;2.93;;;2.07;;
5900;SDS011;2976;49.764;9.796;2023-09-19T04:46:16;3.63;;;2.10;;
5900;SDS011;2976;49.764;9.796;2023-09-19T04:48:42;1.90;;;1.80;;
5900;SDS011;2976;49.764;9.796;2023-09-19T04:51:08;4.10;;;1.67;;
5900;SDS011;2976;49.764;9.796;2023-09-19T04:53:34;1.47;;;1.37;;
5900;SDS011;2976;49.764;9.796;2023-09-19T04:55:59;2.80;;;1.90;;
5900;SDS011;2976;49.764;9.796;2023-09-19T04:58:25;5.27;;;1.67;;
5900;SDS011;2976;49.764;9.796;2023-09-19T05:00:50;7.40;;;1.77;;
5900;SDS011;2976;49.764;9.796;2023-09-19T05:03:16;2.10;;;1.90;;
5900;SDS011;2976;49.764;9.796;2023-09-19T05:05:42;7.50;;;2.13;;
5900;SDS011;2976;49.764;9.796;2023-09-19T05:08:07;3.63;;;2.20;;
5900;SDS011;2976;49.764;9.796;2023-09-19T05:10:34;3.30;;;1.47;;
5900;SDS011;2976;49.764;9.796;2023-09-19T05:13:03;4.13;;;2.33;;
5900;SDS011;2976;49.764;9.796;2023-09-19T05:15:29;2.47;;;1.70;;
5900;SDS011;2976;49.764;9.796;2023-09-19T05:17:55;2.37;;;2.07;;
5900;SDS011;2976;49.764;9.796;2023-09-19T05:20:21;5.73;;;2.00;;
5900;SDS011;2976;49.764;9.796;2023-09-19T05:22:57;3.03;;;1.50;;
5900;SDS011;2976;49.764;9.796;2023-09-19T05:25:26;5.43;;;1.70;;
5900;SDS011;2976;49.764;9.796;2023-09-19T05:27:54;2.07;;;1.97;;
5900;SDS011;2976;49.764;9.796;2023-09-19T05:30:24;2.57;;;2.37;;
5900;SDS011;2976;49.764;9.796;2023-09-19T05:32:52;3.27;;;2.20;;
5900;SDS011;2976;49.764;9.796;2023-09-19T05:35:18;2.33;;;2.00;;
5900;SDS011;2976;49.764;9.796;2023-09-19T05:37:46;2.90;;;2.20;;
5900;SDS011;2976;49.764;9.796;2023-09-19T05:40:14;7.67;;;3.00;;
5900;SDS011;2976;49.764;9.796;2023-09-19T05:42:41;4.10;;;2.33;;
5900;SDS011;2976;49.764;9.796;2023-09-19T05:45:08;3.17;;;2.47;;
5900;SDS011;2976;49.764;9.796;2023-09-19T05:47:37;2.70;;;2.13;;
5900;SDS011;2976;49.764;9.796;2023-09-19T05:50:05;2.90;;;2.00;;
5900;SDS011;2976;49.764;9.796;2023-09-19T05:52:32;4.43;;;2.70;;
5900;SDS011;2976;49.764;9.796;2023-09-19T05:54:58;7.23;;;2.37;;
5900;SDS011;2976;49.764;9.796;2023-09-19T05:57:24;7.70;;;2.40;;
5900;SDS011;2976;49.764;9.796;2023-09-19T05:59:50;2.40;;;2.20;;
5900;SDS011;2976;49.764;9.796;2023-09-19T06:02:16;2.20;;;2.10;;
5900;SDS011;2976;49.764;9.796;2023-09-19T06:04:41;4.37;;;2.13;;
5900;SDS011;2976;49.764;9.796;2023-09-19T06:07:07;1.90;;;1.80;;
5900;SDS011;2976;49.764;9.796;2023-09-19T06:09:32;1.97;;;1.57;;
5900;SDS011;2976;49.764;9.796;2023-09-19T06:11:58;4.53;;;1.90;;
5900;SDS011;2976;49.764;9.796;2023-09-19T06:14:28;7.17;;;2.57;;
5900;SDS011;2976;49.764;9.796;2023-09-19T06:16:54;2.27;;;2.17;;
5900;SDS011;2976;49.764;9.796;2023-09-19T06:19:19;4.33;;;1.93;;
5900;SDS011;2976;49.764;9.796;2023-09-19T06:21:47;1.80;;;1.70;;
5900;SDS011;2976;49.764;9.796;2023-09-19T06:24:13;2.47;;;1.70;;
5900;SDS011;2976;49.764;9.796;2023-09-19T06:26:39;1.40;;;1.30;;
5900;SDS011;2976;49.764;9.796;2023-09-19T06:29:05;1.27;;;1.27;;
5900;SDS011;2976;49.764;9.796;2023-09-19T06:31:34;1.80;;;1.70;;
5900;SDS011;2976;49.764;9.796;2023-09-19T06:33:59;2.03;;;1.87;;
5900;SDS011;2976;49.764;9.796;2023-09-19T06:36:25;1.73;;;1.27;;
5900;SDS011;2976;49.764;9.796;2023-09-19T06:38:50;3.73;;;1.60;;
5900;SDS011;2976;49.764;9.796;2023-09-19T06:41:16;3.23;;;1.97;;
5900;SDS011;2976;49.764;9.796;2023-09-19T06:43:42;2.67;;;1.57;;
5900;SDS011;2976;49.764;9.796;2023-09-19T06:46:08;3.87;;;2.03;;
5900;SDS011;2976;49.764;9.796;2023-09-19T06:48:34;1.77;;;1.67;;
5900;SDS011;2976;49.764;9.796;2023-09-19T06:51:00;4.03;;;2.50;;
5900;SDS011;2976;49.764;9.796;2023-09-19T06:53:30;3.10;;;2.30;;
5900;SDS011;2976;49.764;9.796;2023-09-19T06:55:57;1.70;;;1.57;;
5900;SDS011;2976;49.764;9.796;2023-09-19T06:58:23;1.83;;;1.70;;
5900;SDS011;2976;49.764;9.796;2023-09-19T07:00:48;3.87;;;1.70;;
5900;SDS011;2976;49.764;9.796;2023-09-19T07:03:15;3.40;;;2.23;;
5900;SDS011;2976;49.764;9.796;2023-09-19T07:05:43;2.53;;;1.60;;
5900;SDS011;2976;49.764;9.796;2023-09-19T07:08:09;2.10;;;1.53;;
5900;SDS011;2976;49.764;9.796;2023-09-19T07:10:37;2.40;;;1.37;;
5900;SDS011;2976;49.764;9.796;2023-09-19T07:13:05;5.90;;;1.70;;
5900;SDS011;2976;49.764;9.796;2023-09-19T07:15:36;1.83;;;1.70;;
5900;SDS011;2976;49.764;9.796;2023-09-19T07:18:11;3.50;;;1.73;;
5900;SDS011;2976;49.764;9.796;2023-09-19T07:20:37;3.23;;;1.47;;
5900;SDS011;2976;49.764;9.796;2023-09-19T07:23:03;4.33;;;2.10;;
5900;SDS011;2976;49.764;9.796;2023-09-19T07:25:29;3.53;;;2.53;;
5900;SDS011;2976;49.764;9.796;2023-09-19T07:27:55;3.90;;;2.03;;
5900;SDS011;2976;49.764;9.796;2023-09-19T07:30:21;4.33;;;2.00;;
5900;SDS011;2976;49.764;9.796;2023-09-19T07:32:47;2.50;;;1.70;;
5900;SDS011;2976;49.764;9.796;2023-09-19T07:35:13;1.90;;;1.40;;
5900;SDS011;2976;49.764;9.796;2023-09-19T07:37:40;4.53;;;1.67;;
5900;SDS011;2976;49.764;9.796;2023-09-19T07:40:05;3.83;;;1.83;;
5900;SDS011;2976;49.764;9.796;2023-09-19T07:42:35;4.60;;;1.70;;
5900;SDS011;2976;49.764;9.796;2023-09-19T07:45:05;4.13;;;1.80;;
5900;SDS011;2976;49.764;9.796;2023-09-19T07:47:32;2.73;;;1.40;;
5900;SDS011;2976;49.764;9.796;2023-09-19T07:49:59;2.50;;;1.80;;
5900;SDS011;2976;49.764;9.796;2023-09-19T07:52:27;2.30;;;1.40;;
5900;SDS011;2976;49.764;9.796;2023-09-19T07:54:53;3.90;;;2.30;;
5900;SDS011;2976;49.764;9.796;2023-09-19T07:57:19;2.07;;;1.50;;
5900;SDS011;2976;49.764;9.796;2023-09-19T07:59:45;4.03;;;1.80;;
5900;SDS011;2976;49.764;9.796;2023-09-19T08:02:10;3.47;;;1.27;;
5900;SDS011;2976;49.764;9.796;2023-09-19T08:04:43;3.30;;;1.23;;
5900;SDS011;2976;49.764;9.796;2023-09-19T08:07:13;2.00;;;1.50;;
5900;SDS011;2976;49.764;9.796;2023-09-19T08:09:40;4.03;;;1.90;;
5900;SDS011;2976;49.764;9.796;2023-09-19T08:12:06;1.00;;;0.93;;
5900;SDS011;2976;49.764;9.796;2023-09-19T08:14:35;3.67;;;1.70;;
5900;SDS011;2976;49.764;9.796;2023-09-19T08:17:02;4.43;;;1.53;;
5900;SDS011;2976;49.764;9.796;2023-09-19T08:19:28;6.63;;;1.60;;
5900;SDS011;2976;49.764;9.796;2023-09-19T08:21:57;5.60;;;1.47;;
5900;SDS011;2976;49.764;9.796;2023-09-19T08:24:24;2.77;;;1.17;;
5900;SDS011;2976;49.764;9.796;2023-09-19T08:26:54;5.33;;;1.30;;
5900;SDS011;2976;49.764;9.796;2023-09-19T08:29:20;2.60;;;1.10;;
5900;SDS011;2976;49.764;9.796;2023-09-19T08:31:47;3.30;;;1.50;;
5900;SDS011;2976;49.764;9.796;2023-09-19T08:34:14;3.17;;;1.57;;
5900;SDS011;2976;49.764;9.796;2023-09-19T08:36:40;1.53;;;0.80;;
5900;SDS011;2976;49.764;9.796;2023-09-19T08:39:08;4.43;;;1.67;;
5900;SDS011;2976;49.764;9.796;2023-09-19T08:41:34;4.20;;;1.37;;
5900;SDS011;2976;49.764;9.796;2023-09-19T08:43:59;7.33;;;2.10;;
5900;SDS011;2976;49.764;9.796;2023-09-19T08:46:28;9.23;;;1.30;;
5900;SDS011;2976;49.764;9.796;2023-09-19T08:51:30;9.83;;;1.93;;
5900;SDS011;2976;49.764;9.796;2023-09-19T08:54:06;0.97;;;0.90;;
5900;SDS011;2976;49.764;9.796;2023-09-19T08:56:33;1.33;;;1.00;;
5900;SDS011;2976;49.764;9.796;2023-09-19T08:59:05;4.63;;;0.90;;
5900;SDS011;2976;49.764;9.796;2023-09-19T09:01:34;2.70;;;1.23;;
5900;SDS011;2976;49.764;9.796;2023-09-19T09:04:01;2.50;;;0.70;;
5900;SDS011;2976;49.764;9.796;2023-09-19T09:06:27;1.90;;;1.27;;
5900;SDS011;2976;49.764;9.796;2023-09-19T09:08:53;6.00;;;1.90;;
5900;SDS011;2976;49.764;9.796;2023-09-19T09:11:20;1.97;;;1.50;;
5900;SDS011;2976;49.764;9.796;2023-09-19T09:13:48;3.20;;;1.20;;
5900;SDS011;2976;49.764;9.796;2023-09-19T09:16:14;1.10;;;0.93;;
5900;SDS011;2976;49.764;9.796;2023-09-19T09:18:43;2.93;;;1.20;;
5900;SDS011;2976;49.764;9.796;2023-09-19T09:21:10;2.73;;;1.00;;
5900;SDS011;2976;49.764;9.796;2023-09-19T09:23:36;2.83;;;0.97;;
5900;SDS011;2976;49.764;9.796;2023-09-19T09:26:02;2.10;;;1.63;;
5900;SDS011;2976;49.764;9.796;2023-09-19T09:28:28;1.23;;;1.00;;
5900;SDS011;2976;49.764;9.796;2023-09-19T09:30:55;2.43;;;1.57;;
5900;SDS011;2976;49.764;9.796;2023-09-19T09:33:23;3.70;;;1.30;;
5900;SDS011;2976;49.764;9.796;2023-09-19T09:35:49;3.57;;;1.40;;
5900;SDS011;2976;49.764;9.796;2023-09-19T09:38:44;1.90;;;1.20;;
5900;SDS011;2976;49.764;9.796;2023-09-19T09:41:11;1.53;;;1.10;;
5900;SDS011;2976;49.764;9.796;2023-09-19T09:43:40;2.30;;;1.13;;
5900;SDS011;2976;49.764;9.796;2023-09-19T09:46:15;2.73;;;1.17;;
5900;SDS011;2976;49.764;9.796;2023-09-19T09:51:42;1.60;;;1.17;;
5900;SDS011;2976;49.764;9.796;2023-09-19T09:54:22;4.23;;;1.40;;
5900;SDS011;2976;49.764;9.796;2023-09-19T09:56:55;3.03;;;1.50;;
5900;SDS011;2976;49.764;9.796;2023-09-19T10:02:38;5.10;;;1.57;;
5900;SDS011;2976;49.764;9.796;2023-09-19T10:07:53;1.60;;;1.30;;
5900;SDS011;2976;49.764;9.796;2023-09-19T10:13:23;1.47;;;1.20;;
5900;SDS011;2976;49.764;9.796;2023-09-19T10:15:54;2.90;;;1.27;;
5900;SDS011;2976;49.764;9.796;2023-09-19T10:18:25;7.13;;;1.73;;
5900;SDS011;2976;49.764;9.796;2023-09-19T10:20:53;4.20;;;1.30;;
5900;SDS011;2976;49.764;9.796;2023-09-19T10:23:20;3.00;;;1.70;;
5900;SDS011;2976;49.764;9.796;2023-09-19T10:25:51;2.40;;;1.40;;
5900;SDS011;2976;49.764;9.796;2023-09-19T10:28:18;1.70;;;1.40;;
5900;SDS011;2976;49.764;9.796;2023-09-19T10:30:50;1.30;;;1.20;;
5900;SDS011;2976;49.764;9.796;2023-09-19T10:33:18;1.60;;;1.27;;
5900;SDS011;2976;49.764;9.796;2023-09-19T10:35:46;2.83;;;1.60;;
5900;SDS011;2976;49.764;9.796;2023-09-19T10:38:13;3.07;;;1.37;;
5900;SDS011;2976;49.764;9.796;2023-09-19T10:40:41;2.50;;;1.03;;
5900;SDS011;2976;49.764;9.796;2023-09-19T10:43:11;1.60;;;1.13;;
5900;SDS011;2976;49.764;9.796;2023-09-19T10:45:42;1.23;;;1.13;;
5900;SDS011;2976;49.764;9.796;2023-09-19T10:48:09;2.93;;;1.00;;
5900;SDS011;2976;49.764;9.796;2023-09-19T10:50:41;1.80;;;1.63;;
5900;SDS011;2976;49.764;9.796;2023-09-19T10:53:09;2.43;;;1.30;;
5900;SDS011;2976;49.764;9.796;2023-09-19T10:55:37;2.70;;;1.23;;
5900;SDS011;2976;49.764;9.796;2023-09-19T10:58:03;7.70;;;1.70;;
5900;SDS011;2976;49.764;9.796;2023-09-19T11:00:55;1.20;;;1.10;;
5900;SDS011;2976;49.764;9.796;2023-09-19T11:03:22;1.80;;;1.07;;
5900;SDS011;2976;49.764;9.796;2023-09-19T11:06:05;1.50;;;1.37;;
5900;SDS011;2976;49.764;9.796;2023-09-19T11:08:57;6.13;;;1.40;;
5900;SDS011;2976;49.764;9.796;2023-09-19T11:11:40;2.10;;;1.17;;
5900;SDS011;2976;49.764;9.796;2023-09-19T11:30:49;1.53;;;1.00;;
5900;SDS011;2976;49.764;9.796;2023-09-19T11:33:22;3.00;;;1.10;;
5900;SDS011;2976;49.764;9.796;2023-09-19T11:36:07;3.17;;;1.57;;
5900;SDS011;2976;49.764;9.796;2023-09-19T11:46:30;2.77;;;1.30;;
5900;SDS011;2976;49.764;9.796;2023-09-19T11:49:07;1.90;;;1.20;;
5900;SDS011;2976;49.764;9.796;2023-09-19T11:51:40;2.47;;;1.60;;
5900;SDS011;2976;49.764;9.796;2023-09-19T11:54:10;2.70;;;1.13;;
5900;SDS011;2976;49.764;9.796;2023-09-19T11:56:43;2.33;;;1.40;;
5900;SDS011;2976;49.764;9.796;2023-09-19T11:59:10;4.93;;;1.33;;
5900;SDS011;2976;49.764;9.796;2023-09-19T12:01:36;2.67;;;1.33;;
5900;SDS011;2976;49.764;9.796;2023-09-19T12:04:05;1.80;;;1.23;;
5900;SDS011;2976;49.764;9.796;2023-09-19T12:06:33;2.90;;;1.57;;
5900;SDS011;2976;49.764;9.796;2023-09-19T12:09:00;1.90;;;1.20;;
5900;SDS011;2976;49.764;9.796;2023-09-19T12:11:30;1.33;;;1.03;;
5900;SDS011;2976;49.764;9.796;2023-09-19T12:14:00;4.83;;;1.10;;
5900;SDS011;2976;49.764;9.796;2023-09-19T12:16:27;3.90;;;0.90;;
5900;SDS011;2976;49.764;9.796;2023-09-19T12:18:55;4.83;;;1.33;;
5900;SDS011;2976;49.764;9.796;2023-09-19T12:26:41;1.00;;;1.00;;
5900;SDS011;2976;49.764;9.796;2023-09-19T12:29:20;3.40;;;1.00;;
5900;SDS011;2976;49.764;9.796;2023-09-19T12:31:49;3.83;;;1.07;;
5900;SDS011;2976;49.764;9.796;2023-09-19T12:34:16;2.30;;;1.00;;
5900;SDS011;2976;49.764;9.796;2023-09-19T12:36:47;1.07;;;0.97;;
5900;SDS011;2976;49.764;9.796;2023-09-19T12:39:22;1.20;;;1.10;;
5900;SDS011;2976;49.764;9.796;2023-09-19T12:41:49;0.87;;;0.70;;
5900;SDS011;2976;49.764;9.796;2023-09-19T12:44:16;7.97;;;0.90;;
5900;SDS011;2976;49.764;9.796;2023-09-19T12:46:43;2.40;;;0.90;;
5900;SDS011;2976;49.764;9.796;2023-09-19T12:49:16;1.10;;;0.90;;
5900;SDS011;2976;49.764;9.796;2023-09-19T12:51:43;4.73;;;0.73;;
5900;SDS011;2976;49.764;9.796;2023-09-19T12:54:10;2.60;;;1.10;;
5900;SDS011;2976;49.764;9.796;2023-09-19T12:56:40;1.80;;;1.37;;
5900;SDS011;2976;49.764;9.796;2023-09-19T12:59:29;2.93;;;1.03;;
5900;SDS011;2976;49.764;9.796;2023-09-19T13:02:04;1.57;;;1.10;;
5900;SDS011;2976;49.764;9.796;2023-09-19T13:04:38;3.07;;;1.30;;
5900;SDS011;2976;49.764;9.796;2023-09-19T13:07:06;2.13;;;1.17;;
5900;SDS011;2976;49.764;9.796;2023-09-19T13:09:34;1.57;;;1.00;;
5900;SDS011;2976;49.764;9.796;2023-09-19T13:11:59;2.33;;;1.10;;
5900;SDS011;2976;49.764;9.796;2023-09-19T13:14:27;3.33;;;1.67;;
5900;SDS011;2976;49.764;9.796;2023-09-19T13:17:00;5.03;;;1.20;;
5900;SDS011;2976;49.764;9.796;2023-09-19T13:25:11;3.70;;;1.10;;
5900;SDS011;2976;49.764;9.796;2023-09-19T13:27:43;6.43;;;1.30;;
5900;SDS011;2976;49.764;9.796;2023-09-19T13:30:10;2.83;;;1.17;;
5900;SDS011;2976;49.764;9.796;2023-09-19T13:32:37;2.30;;;1.20;;
5900;SDS011;2976;49.764;9.796;2023-09-19T13:35:04;1.20;;;1.10;;
5900;SDS011;2976;49.764;9.796;2023-09-19T13:37:30;2.23;;;0.70;;
5900;SDS011;2976;49.764;9.796;2023-09-19T13:39:58;1.57;;;1.00;;
5900;SDS011;2976;49.764;9.796;2023-09-19T13:42:24;6.23;;;2.47;;
5900;SDS011;2976;49.764;9.796;2023-09-19T13:44:50;1.23;;;0.83;;
5900;SDS011;2976;49.764;9.796;2023-09-19T13:47:16;3.63;;;1.03;;
5900;SDS011;2976;49.764;9.796;2023-09-19T13:49:49;1.90;;;1.00;;
5900;SDS011;2976;49.764;9.796;2023-09-19T13:52:17;1.40;;;1.03;;
5900;SDS011;2976;49.764;9.796;2023-09-19T13:54:43;3.40;;;1.07;;
5900;SDS011;2976;49.764;9.796;2023-09-19T13:57:09;22.57;;;2.37;;
5900;SDS011;2976;49.764;9.796;2023-09-19T13:59:35;5.40;;;1.37;;
5900;SDS011;2976;49.764;9.796;2023-09-19T14:02:00;3.67;;;1.83;;
5900;SDS011;2976;49.764;9.796;2023-09-19T14:04:28;3.40;;;1.10;;
5900;SDS011;2976;49.764;9.796;2023-09-19T14:06:54;0.93;;;0.93;;
5900;SDS011;2976;49.764;9.796;2023-09-19T14:09:19;3.03;;;1.10;;
5900;SDS011;2976;49.764;9.796;2023-09-19T14:11:45;1.87;;;1.07;;
5900;SDS011;2976;49.764;9.796;2023-09-19T14:14:12;1.13;;;0.83;;
5900;SDS011;2976;49.764;9.796;2023-09-19T14:16:38;5.63;;;1.10;;
5900;SDS011;2976;49.764;9.796;2023-09-19T14:19:06;3.80;;;1.00;;
5900;SDS011;2976;49.764;9.796;2023-09-19T14:21:33;2.63;;;1.20;;
5900;SDS011;2976;49.764;9.796;2023-09-19T14:23:58;2.43;;;1.00;;
5900;SDS011;2976;49.764;9.796;2023-09-19T14:26:24;1.03;;;0.93;;
5900;SDS011;2976;49.764;9.796;2023-09-19T14:28:49;4.83;;;1.30;;
5900;SDS011;2976;49.764;9.796;2023-09-19T14:31:15;2.63;;;0.80;;
5900;SDS011;2976;49.764;9.796;2023-09-19T14:33:40;2.10;;;0.90;;
5900;SDS011;2976;49.764;9.796;2023-09-19T14:36:06;0.83;;;0.80;;
5900;SDS011;2976;49.764;9.796;2023-09-19T14:38:34;1.53;;;1.30;;
5900;SDS011;2976;49.764;9.796;2023-09-19T14:41:04;2.20;;;1.10;;
5900;SDS011;2976;49.764;9.796;2023-09-19T14:43:30;1.73;;;0.80;;
5900;SDS011;2976;49.764;9.796;2023-09-19T14:45:57;1.40;;;1.13;;
5900;SDS011;2976;49.764;9.796;2023-09-19T14:48:35;3.43;;;1.10;;
5900;SDS011;2976;49.764;9.796;2023-09-19T14:51:02;1.23;;;1.00;;
5900;SDS011;2976;49.764;9.796;2023-09-19T14:53:28;3.63;;;1.33;;
5900;SDS011;2976;49.764;9.796;2023-09-19T14:55:54;2.53;;;1.10;;
5900;SDS011;2976;49.764;9.796;2023-09-19T14:58:21;2.27;;;1.20;;
5900;SDS011;2976;49.764;9.796;2023-09-19T15:00:46;4.20;;;1.30;;
5900;SDS011;2976;49.764;9.796;2023-09-19T15:03:12;4.20;;;0.90;;
5900;SDS011;2976;49.764;9.796;2023-09-19T15:05:38;1.37;;;1.00;;
5900;SDS011;2976;49.764;9.796;2023-09-19T15:08:04;2.77;;;1.00;;
5900;SDS011;2976;49.764;9.796;2023-09-19T15:10:30;3.30;;;1.17;;
5900;SDS011;2976;49.764;9.796;2023-09-19T15:12:56;3.13;;;1.10;;
5900;SDS011;2976;49.764;9.796;2023-09-19T15:15:22;2.77;;;1.30;;
5900;SDS011;2976;49.764;9.796;2023-09-19T15:17:47;4.30;;;1.07;;
5900;SDS011;2976;49.764;9.796;2023-09-19T15:20:13;1.73;;;1.47;;
5900;SDS011;2976;49.764;9.796;2023-09-19T15:22:39;2.80;;;0.90;;
5900;SDS011;2976;49.764;9.796;2023-09-19T15:25:05;1.77;;;0.93;;
5900;SDS011;2976;49.764;9.796;2023-09-19T15:27:31;1.30;;;1.20;;
5900;SDS011;2976;49.764;9.796;2023-09-19T15:29:58;1.30;;;1.03;;
5900;SDS011;2976;49.764;9.796;2023-09-19T15:32:27;1.60;;;0.77;;
5900;SDS011;2976;49.764;9.796;2023-09-19T15:34:53;1.87;;;0.77;;
5900;SDS011;2976;49.764;9.796;2023-09-19T15:37:18;2.10;;;1.27;;
5900;SDS011;2976;49.764;9.796;2023-09-19T15:39:45;1.80;;;1.10;;
5900;SDS011;2976;49.764;9.796;2023-09-19T15:42:11;4.80;;;1.40;;
5900;SDS011;2976;49.764;9.796;2023-09-19T15:44:37;3.50;;;1.10;;
5900;SDS011;2976;49.764;9.796;2023-09-19T15:47:03;2.20;;;1.00;;
5900;SDS011;2976;49.764;9.796;2023-09-19T15:49:29;0.97;;;0.90;;
5900;SDS011;2976;49.764;9.796;2023-09-19T15:51:55;1.70;;;0.90;;
5900;SDS011;2976;49.764;9.796;2023-09-19T15:54:20;6.17;;;1.10;;
5900;SDS011;2976;49.764;9.796;2023-09-19T15:56:46;4.70;;;1.50;;
5900;SDS011;2976;49.764;9.796;2023-09-19T15:59:13;2.47;;;0.90;;
5900;SDS011;2976;49.764;9.796;2023-09-19T16:01:43;0.90;;;0.90;;
5900;SDS011;2976;49.764;9.796;2023-09-19T16:04:09;4.33;;;0.90;;
5900;SDS011;2976;49.764;9.796;2023-09-19T16:06:36;3.70;;;1.10;;
5900;SDS011;2976;49.764;9.796;2023-09-19T16:09:03;1.47;;;0.80;;
5900;SDS011;2976;49.764;9.796;2023-09-19T16:11:30;0.90;;;0.90;;
5900;SDS011;2976;49.764;9.796;2023-09-19T16:13:57;4.27;;;1.30;;
5900;SDS011;2976;49.764;9.796;2023-09-19T16:16:23;2.87;;;1.07;;
5900;SDS011;2976;49.764;9.796;2023-09-19T16:18:52;2.20;;;1.03;;
5900;SDS011;2976;49.764;9.796;2023-09-19T16:21:22;2.37;;;1.27;;
5900;SDS011;2976;49.764;9.796;2023-09-19T16:23:49;0.80;;;0.80;;
5900;SDS011;2976;49.764;9.796;2023-09-19T16:26:16;5.50;;;0.90;;